Time,TemperatureF,DewpointF,PressureIn,WindDirection,WindDirectionDegrees,WindSpeedMPH,WindSpeedGustMPH,Humidity,HourlyPrecipIn,Conditions,Clouds,dailyrainin,SoftwareType,DateUTC
2013-10-05 00:02:00,70.1,66.4,29.94,SSE,158,0.0,0.0,88,0.00,,,0.00,WUHU216HW,2013-10-05 04:02:00,
2013-10-05 00:07:00,69.9,66.2,29.95,SSE,158,0.0,0.0,88,0.00,,,0.00,WUHU216HW,2013-10-05 04:07:00,
2013-10-05 00:12:00,69.9,66.2,29.94,SSE,158,0.0,0.0,88,0.00,,,0.00,WUHU216HW,2013-10-05 04:12:00,
2013-10-05 00:17:00,69.9,66.2,29.95,SSE,158,0.0,0.0,88,0.00,,,0.00,WUHU216HW,2013-10-05 04:17:00,
2013-10-05 00:23:00,69.9,66.2,29.95,SSE,158,0.0,0.0,88,0.00,,,0.00,WUHU216HW,2013-10-05 04:23:00,
2013-10-05 00:28:00,69.9,66.2,29.95,SSE,158,0.0,0.0,88,0.00,,,0.00,WUHU216HW,2013-10-05 04:28:00,
2013-10-05 00:33:00,69.9,66.2,29.94,SSE,158,0.0,0.0,88,0.00,,,0.00,WUHU216HW,2013-10-05 04:33:00,
2013-10-05 00:38:00,69.9,66.2,29.94,SSE,158,0.0,0.0,88,0.00,,,0.00,WUHU216HW,2013-10-05 04:38:00,
2013-10-05 00:43:00,69.9,66.2,29.94,SSE,158,0.0,0.0,88,0.00,,,0.00,WUHU216HW,2013-10-05 04:43:00,
2013-10-05 00:48:00,69.9,66.2,29.94,SSE,158,0.0,0.0,88,0.00,,,0.00,WUHU216HW,2013-10-05 04:48:00,
2013-10-05 00:53:00,69.9,66.2,29.94,SSE,158,0.0,0.0,88,0.00,,,0.00,WUHU216HW,2013-10-05 04:53:00,
2013-10-05 00:58:00,69.9,66.2,29.94,SSE,158,0.0,0.0,88,0.00,,,0.00,WUHU216HW,2013-10-05 04:58:00,
2013-10-05 01:03:00,69.9,66.2,29.94,SSE,158,0.0,0.0,88,0.00,,,0.00,WUHU216HW,2013-10-05 05:03:00,
2013-10-05 01:08:00,69.9,66.2,29.94,SSE,158,0.0,0.0,88,0.00,,,0.00,WUHU216HW,2013-10-05 05:08:00,
2013-10-05 01:13:00,69.9,66.2,29.94,SSE,158,0.0,0.0,88,0.00,,,0.00,WUHU216HW,2013-10-05 05:13:00,
2013-10-05 01:18:00,69.9,66.2,29.94,SSE,158,0.0,0.0,88,0.00,,,0.00,WUHU216HW,2013-10-05 05:18:00,
2013-10-05 01:23:00,69.9,66.5,29.94,SSE,158,0.0,0.0,89,0.00,,,0.00,WUHU216HW,2013-10-05 05:23:00,
2013-10-05 01:28:00,69.9,66.5,29.94,SSE,158,0.0,0.0,89,0.00,,,0.00,WUHU216HW,2013-10-05 05:28:00,
2013-10-05 01:33:00,69.9,66.5,29.94,SSE,158,0.0,0.0,89,0.00,,,0.00,WUHU216HW,2013-10-05 05:33:00,
2013-10-05 01:38:00,69.9,66.5,29.94,SSE,158,0.0,0.0,89,0.00,,,0.00,WUHU216HW,2013-10-05 05:38:00,
2013-10-05 01:43:00,69.9,66.5,29.94,SSE,158,0.0,0.0,89,0.00,,,0.00,WUHU216HW,2013-10-05 05:43:00,
2013-10-05 01:48:00,69.9,66.5,29.94,SSE,158,0.0,0.0,89,0.00,,,0.00,WUHU216HW,2013-10-05 05:48:00,
2013-10-05 01:53:00,69.9,66.5,29.94,SSE,158,0.0,0.0,89,0.00,,,0.00,WUHU216HW,2013-10-05 05:53:00,
2013-10-05 01:58:00,69.9,66.5,29.94,SSE,158,0.0,0.0,89,0.00,,,0.00,WUHU216HW,2013-10-05 05:58:00,
2013-10-05 02:03:00,69.9,66.5,29.93,SSE,158,0.0,0.0,89,0.00,,,0.00,WUHU216HW,2013-10-05 06:03:00,
2013-10-05 02:08:00,69.8,66.3,29.93,SSE,158,0.0,0.0,89,0.00,,,0.00,WUHU216HW,2013-10-05 06:08:00,
2013-10-05 02:13:00,69.8,66.3,29.94,SSE,158,0.0,0.0,89,0.00,,,0.00,WUHU216HW,2013-10-05 06:13:00,
2013-10-05 02:18:00,69.8,66.3,29.94,SSE,158,0.0,0.0,89,0.00,,,0.00,WUHU216HW,2013-10-05 06:18:00,
2013-10-05 02:23:00,69.9,66.5,29.94,SSE,158,0.0,0.0,89,0.00,,,0.00,WUHU216HW,2013-10-05 06:23:00,
2013-10-05 02:28:00,69.9,66.5,29.94,SSE,158,0.0,0.0,89,0.00,,,0.00,WUHU216HW,2013-10-05 06:28:00,
2013-10-05 02:33:00,69.9,66.5,29.94,SSE,158,0.0,0.0,89,0.00,,,0.00,WUHU216HW,2013-10-05 06:33:00,
2013-10-05 02:38:00,69.9,66.5,29.94,SSE,158,0.0,0.0,89,0.00,,,0.00,WUHU216HW,2013-10-05 06:38:00,
2013-10-05 02:43:00,69.9,66.5,29.94,SSE,158,0.0,0.0,89,0.00,,,0.00,WUHU216HW,2013-10-05 06:43:00,
2013-10-05 02:48:00,69.9,66.5,29.94,SSE,158,0.0,0.0,89,0.00,,,0.00,WUHU216HW,2013-10-05 06:48:00,
2013-10-05 02:53:00,69.9,66.5,29.94,SSE,158,0.0,0.0,89,0.00,,,0.00,WUHU216HW,2013-10-05 06:53:00,
2013-10-05 02:58:00,69.9,66.5,29.94,SSE,158,0.0,0.0,89,0.00,,,0.00,WUHU216HW,2013-10-05 06:58:00,
2013-10-05 03:03:00,69.9,66.5,29.94,SSE,158,0.0,0.0,89,0.00,,,0.00,WUHU216HW,2013-10-05 07:03:00,
2013-10-05 03:08:00,69.8,66.7,29.94,SSE,158,0.0,0.0,90,0.00,,,0.00,WUHU216HW,2013-10-05 07:08:00,
2013-10-05 03:13:00,69.8,66.7,29.94,SSE,158,0.0,0.0,90,0.00,,,0.00,WUHU216HW,2013-10-05 07:13:00,
2013-10-05 03:18:00,69.8,66.7,29.94,SSE,158,0.0,0.0,90,0.00,,,0.00,WUHU216HW,2013-10-05 07:18:00,
2013-10-05 03:23:00,69.8,66.7,29.94,SSE,158,0.0,0.0,90,0.00,,,0.00,WUHU216HW,2013-10-05 07:23:00,
2013-10-05 03:28:00,69.6,66.2,29.93,SSE,158,0.0,0.0,89,0.00,,,0.00,WUHU216HW,2013-10-05 07:28:00,
2013-10-05 03:33:00,69.6,66.2,29.93,SSE,158,0.0,0.0,89,0.00,,,0.00,WUHU216HW,2013-10-05 07:33:00,
2013-10-05 03:38:00,69.6,66.2,29.93,SSE,158,0.0,0.0,89,0.00,,,0.00,WUHU216HW,2013-10-05 07:38:00,
2013-10-05 03:43:00,69.6,66.2,29.93,SSE,158,0.0,0.0,89,0.00,,,0.00,WUHU216HW,2013-10-05 07:43:00,
2013-10-05 03:48:00,69.6,66.2,29.93,SSE,158,0.0,0.0,89,0.00,,,0.00,WUHU216HW,2013-10-05 07:48:00,
2013-10-05 03:53:00,69.6,66.2,29.93,SSE,158,0.0,0.0,89,0.00,,,0.00,WUHU216HW,2013-10-05 07:53:00,
2013-10-05 03:58:00,69.6,66.2,29.93,SSE,158,0.0,0.0,89,0.00,,,0.00,WUHU216HW,2013-10-05 07:58:00,
2013-10-05 04:03:00,69.6,66.2,29.93,SSE,158,0.0,0.0,89,0.00,,,0.00,WUHU216HW,2013-10-05 08:03:00,
2013-10-05 04:08:00,69.6,66.5,29.93,SSE,158,0.0,0.0,90,0.00,,,0.00,WUHU216HW,2013-10-05 08:08:00,
2013-10-05 04:13:00,69.6,66.5,29.93,SSE,158,0.0,0.0,90,0.00,,,0.00,WUHU216HW,2013-10-05 08:13:00,
2013-10-05 04:18:00,69.6,66.5,29.93,SSE,158,0.0,0.0,90,0.00,,,0.00,WUHU216HW,2013-10-05 08:18:00,
2013-10-05 04:23:00,69.6,66.5,29.92,SSE,158,0.0,0.0,90,0.00,,,0.00,WUHU216HW,2013-10-05 08:23:00,
2013-10-05 04:28:00,69.6,66.5,29.92,SSE,158,0.0,0.0,90,0.00,,,0.00,WUHU216HW,2013-10-05 08:28:00,
2013-10-05 04:33:00,69.6,66.5,29.93,SSE,158,0.0,0.0,90,0.00,,,0.00,WUHU216HW,2013-10-05 08:33:00,
2013-10-05 04:38:00,69.6,66.5,29.92,SSE,158,0.0,0.0,90,0.00,,,0.00,WUHU216HW,2013-10-05 08:38:00,
2013-10-05 04:43:00,69.4,66.3,29.92,SSE,158,0.0,0.0,90,0.00,,,0.00,WUHU216HW,2013-10-05 08:43:00,
2013-10-05 04:48:00,69.4,66.3,29.92,SSE,158,0.0,0.0,90,0.00,,,0.00,WUHU216HW,2013-10-05 08:48:00,
2013-10-05 04:53:00,69.4,66.3,29.92,SSE,158,0.0,0.0,90,0.00,,,0.00,WUHU216HW,2013-10-05 08:53:00,
2013-10-05 04:58:00,69.4,66.3,29.92,SSE,158,0.0,0.0,90,0.00,,,0.00,WUHU216HW,2013-10-05 08:58:00,
2013-10-05 05:03:00,69.4,66.3,29.92,SSE,158,0.0,0.0,90,0.00,,,0.00,WUHU216HW,2013-10-05 09:03:00,
2013-10-05 05:08:00,69.4,66.3,29.93,SSE,158,0.0,0.0,90,0.00,,,0.00,WUHU216HW,2013-10-05 09:08:00,
2013-10-05 05:13:00,69.2,66.2,29.92,SSE,158,0.0,0.0,90,0.00,,,0.00,WUHU216HW,2013-10-05 09:13:00,
2013-10-05 05:18:00,69.2,66.2,29.92,SSE,158,0.0,0.0,90,0.00,,,0.00,WUHU216HW,2013-10-05 09:18:00,
2013-10-05 05:23:00,69.2,66.2,29.93,SSE,158,0.0,0.0,90,0.00,,,0.00,WUHU216HW,2013-10-05 09:23:00,
2013-10-05 05:28:00,69.0,66.2,29.93,SSE,158,0.0,0.0,90,0.00,,,0.00,WUHU216HW,2013-10-05 09:28:00,
2013-10-05 05:33:00,69.0,66.0,29.93,SSE,158,0.0,0.0,90,0.00,,,0.00,WUHU216HW,2013-10-05 09:33:00,
2013-10-05 05:38:00,69.0,66.0,29.92,SSE,158,0.0,0.0,90,0.00,,,0.00,WUHU216HW,2013-10-05 09:38:00,
2013-10-05 05:43:00,69.0,66.3,29.93,SSE,158,0.0,0.0,91,0.00,,,0.00,WUHU216HW,2013-10-05 09:43:00,
2013-10-05 05:48:00,69.0,66.3,29.93,SSE,158,0.0,0.0,91,0.00,,,0.00,WUHU216HW,2013-10-05 09:48:00,
2013-10-05 05:53:00,69.0,66.3,29.93,SSE,158,0.0,0.0,91,0.00,,,0.00,WUHU216HW,2013-10-05 09:53:00,
2013-10-05 05:58:00,69.0,66.1,29.93,SSE,158,0.0,0.0,91,0.00,,,0.00,WUHU216HW,2013-10-05 09:58:00,
2013-10-05 06:03:00,68.9,66.1,29.93,SSE,158,0.0,0.0,91,0.00,,,0.00,WUHU216HW,2013-10-05 10:03:00,
2013-10-05 06:08:00,68.9,66.1,29.93,SSE,158,0.0,0.0,91,0.00,,,0.00,WUHU216HW,2013-10-05 10:08:00,
2013-10-05 06:13:00,68.9,66.1,29.93,SSE,158,0.0,0.0,91,0.00,,,0.00,WUHU216HW,2013-10-05 10:13:00,
2013-10-05 06:18:00,68.7,65.6,29.92,SSE,158,0.0,0.0,90,0.00,,,0.00,WUHU216HW,2013-10-05 10:18:00,
2013-10-05 06:23:00,68.7,65.6,29.93,SSE,158,0.0,0.0,90,0.00,,,0.00,WUHU216HW,2013-10-05 10:23:00,
2013-10-05 06:28:00,68.7,65.6,29.93,SSE,158,0.0,0.0,90,0.00,,,0.00,WUHU216HW,2013-10-05 10:28:00,
2013-10-05 06:33:00,68.7,65.6,29.93,SSE,158,0.0,0.0,90,0.00,,,0.00,WUHU216HW,2013-10-05 10:33:00,
2013-10-05 06:38:00,68.7,65.9,29.93,SSE,158,0.0,0.0,91,0.00,,,0.00,WUHU216HW,2013-10-05 10:38:00,
2013-10-05 06:43:00,68.5,65.7,29.93,SSE,158,0.0,0.0,91,0.00,,,0.00,WUHU216HW,2013-10-05 10:43:00,
2013-10-05 06:48:00,68.5,65.7,29.93,SSE,158,0.0,0.0,91,0.00,,,0.00,WUHU216HW,2013-10-05 10:48:00,
2013-10-05 06:53:00,68.5,65.7,29.93,SSE,158,0.0,0.0,91,0.00,,,0.00,WUHU216HW,2013-10-05 10:53:00,
2013-10-05 06:58:00,68.3,65.6,29.93,SSE,158,0.0,0.0,91,0.00,,,0.00,WUHU216HW,2013-10-05 10:58:00,
2013-10-05 07:03:00,68.3,65.6,29.93,SSE,158,0.0,0.0,91,0.00,,,0.00,WUHU216HW,2013-10-05 11:03:00,
2013-10-05 07:08:00,68.1,65.4,29.93,SSE,158,0.0,0.0,91,0.00,,,0.00,WUHU216HW,2013-10-05 11:08:00,
2013-10-05 07:13:00,68.1,65.4,29.93,SSE,158,0.0,0.0,91,0.00,,,0.00,WUHU216HW,2013-10-05 11:13:00,
2013-10-05 07:18:00,68.0,65.2,29.93,SSE,158,0.0,0.0,91,0.00,,,0.00,WUHU216HW,2013-10-05 11:18:00,
2013-10-05 07:23:00,67.8,65.0,29.93,SSE,158,0.0,0.0,91,0.00,,,0.00,WUHU216HW,2013-10-05 11:23:00,
2013-10-05 07:28:00,67.8,65.0,29.92,SSE,158,0.0,0.0,91,0.00,,,0.00,WUHU216HW,2013-10-05 11:28:00,
2013-10-05 07:33:00,67.8,65.0,29.92,SSE,158,0.0,0.0,91,0.00,,,0.00,WUHU216HW,2013-10-05 11:33:00,
2013-10-05 07:38:00,67.6,64.8,29.92,SSE,158,0.0,0.0,91,0.00,,,0.00,WUHU216HW,2013-10-05 11:38:00,
2013-10-05 07:43:00,67.6,64.8,29.92,SSE,158,0.0,0.0,91,0.00,,,0.00,WUHU216HW,2013-10-05 11:43:00,
2013-10-05 07:48:00,67.6,64.8,29.92,SSE,158,0.0,0.0,91,0.00,,,0.00,WUHU216HW,2013-10-05 11:48:00,
2013-10-05 07:53:00,67.2,64.5,29.92,SSE,158,0.0,0.0,91,0.00,,,0.00,WUHU216HW,2013-10-05 11:53:00,
2013-10-05 07:58:00,67.2,64.5,29.93,SSE,158,0.0,0.0,91,0.00,,,0.00,WUHU216HW,2013-10-05 11:58:00,
2013-10-05 08:03:00,67.2,64.5,29.92,SSE,158,0.0,0.0,91,0.00,,,0.00,WUHU216HW,2013-10-05 12:03:00,
2013-10-05 08:08:00,67.1,64.3,29.92,SSE,158,0.0,0.0,91,0.00,,,0.00,WUHU216HW,2013-10-05 12:08:00,
2013-10-05 08:13:00,67.1,64.3,29.93,SE,135,0.0,0.0,91,0.00,,,0.00,WUHU216HW,2013-10-05 12:13:00,
2013-10-05 08:18:00,67.1,64.3,29.92,SE,135,0.0,0.0,91,0.00,,,0.00,WUHU216HW,2013-10-05 12:18:00,
2013-10-05 08:23:00,66.9,64.1,29.93,SE,135,0.0,0.0,91,0.00,,,0.00,WUHU216HW,2013-10-05 12:23:00,
2013-10-05 08:28:00,66.9,64.1,29.92,SE,135,0.0,0.0,91,0.00,,,0.00,WUHU216HW,2013-10-05 12:28:00,
2013-10-05 08:33:00,66.9,64.1,29.92,SE,135,0.0,0.0,91,0.00,,,0.00,WUHU216HW,2013-10-05 12:33:00,
2013-10-05 08:38:00,66.9,64.1,29.92,SE,135,0.0,0.0,91,0.00,,,0.00,WUHU216HW,2013-10-05 12:38:00,
2013-10-05 08:43:00,66.9,64.1,29.92,SE,135,0.0,0.0,91,0.00,,,0.00,WUHU216HW,2013-10-05 12:43:00,
2013-10-05 08:48:00,66.9,64.1,29.92,SE,135,0.0,0.0,91,0.00,,,0.00,WUHU216HW,2013-10-05 12:48:00,
2013-10-05 08:53:00,66.9,64.1,29.92,SE,135,0.0,0.0,91,0.00,,,0.00,WUHU216HW,2013-10-05 12:53:00,
2013-10-05 08:58:00,67.1,64.3,29.92,SE,135,0.0,0.0,91,0.00,,,0.00,WUHU216HW,2013-10-05 12:58:00,
2013-10-05 09:03:00,67.1,64.3,29.92,SE,135,0.0,0.0,91,0.00,,,0.00,WUHU216HW,2013-10-05 13:03:00,
2013-10-05 09:08:00,67.2,64.5,29.93,SE,135,0.0,0.0,91,0.00,,,0.00,WUHU216HW,2013-10-05 13:08:00,
2013-10-05 09:13:00,67.2,64.5,29.93,SE,135,0.0,0.0,91,0.00,,,0.00,WUHU216HW,2013-10-05 13:13:00,
2013-10-05 09:18:00,67.6,64.8,29.93,SE,135,0.0,0.0,91,0.00,,,0.00,WUHU216HW,2013-10-05 13:18:00,
2013-10-05 09:23:00,67.6,64.8,29.93,SE,135,0.0,0.0,91,0.00,,,0.00,WUHU216HW,2013-10-05 13:23:00,
2013-10-05 09:28:00,67.8,65.0,29.93,SE,135,0.0,0.0,91,0.00,,,0.00,WUHU216HW,2013-10-05 13:28:00,
2013-10-05 09:33:00,67.8,65.0,29.93,SE,135,0.0,0.0,91,0.00,,,0.00,WUHU216HW,2013-10-05 13:33:00,
2013-10-05 09:38:00,68.1,65.7,29.93,SE,135,0.0,0.0,92,0.00,,,0.00,WUHU216HW,2013-10-05 13:38:00,
2013-10-05 09:43:00,68.5,66.0,29.93,SE,135,0.0,0.0,92,0.00,,,0.00,WUHU216HW,2013-10-05 13:43:00,
2013-10-05 09:48:00,68.7,66.2,29.93,SSE,158,0.0,0.0,92,0.00,,,0.00,WUHU216HW,2013-10-05 13:48:00,
2013-10-05 09:53:00,68.9,66.4,29.93,ENE,68,0.0,0.0,92,0.02,,,0.02,WUHU216HW,2013-10-05 13:53:00,
2013-10-05 09:58:00,69.0,66.6,29.93,ENE,68,0.0,0.0,92,0.02,,,0.02,WUHU216HW,2013-10-05 13:58:00,
2013-10-05 10:03:00,69.2,66.8,29.93,ENE,68,0.0,0.0,92,0.02,,,0.02,WUHU216HW,2013-10-05 14:03:00,
2013-10-05 10:08:00,69.4,66.9,29.94,ESE,113,0.0,0.0,92,0.02,,,0.02,WUHU216HW,2013-10-05 14:08:00,
2013-10-05 10:13:00,69.6,67.1,29.93,ESE,113,0.0,0.0,92,0.02,,,0.02,WUHU216HW,2013-10-05 14:13:00,
2013-10-05 10:18:00,69.6,67.1,29.94,ESE,113,0.0,0.0,92,0.02,,,0.02,WUHU216HW,2013-10-05 14:18:00,
2013-10-05 10:23:00,69.6,67.1,29.94,ESE,113,0.0,0.0,92,0.02,,,0.02,WUHU216HW,2013-10-05 14:23:00,
2013-10-05 10:28:00,69.6,67.1,29.94,ESE,113,0.0,0.0,92,0.02,,,0.02,WUHU216HW,2013-10-05 14:28:00,
2013-10-05 10:33:00,69.6,67.1,29.94,ESE,113,0.0,0.0,92,0.02,,,0.02,WUHU216HW,2013-10-05 14:33:00,
2013-10-05 10:38:00,69.6,67.1,29.94,ESE,113,0.0,0.0,92,0.02,,,0.02,WUHU216HW,2013-10-05 14:38:00,
2013-10-05 10:43:00,69.6,67.1,29.95,ESE,113,0.0,0.0,92,0.02,,,0.02,WUHU216HW,2013-10-05 14:43:00,
2013-10-05 10:48:00,69.8,67.3,29.95,ESE,113,0.0,0.0,92,0.02,,,0.02,WUHU216HW,2013-10-05 14:48:00,
2013-10-05 10:53:00,69.8,67.3,29.94,ESE,113,0.0,0.0,92,0.02,,,0.04,WUHU216HW,2013-10-05 14:53:00,
2013-10-05 10:58:00,69.9,67.5,29.94,ESE,113,0.0,0.0,92,0.02,,,0.04,WUHU216HW,2013-10-05 14:58:00,
2013-10-05 11:03:00,70.1,67.7,29.93,ESE,113,0.0,0.0,92,0.04,,,0.06,WUHU216HW,2013-10-05 15:03:00,
2013-10-05 11:08:00,70.1,67.7,29.93,ESE,113,0.0,0.0,92,0.04,,,0.06,WUHU216HW,2013-10-05 15:08:00,
2013-10-05 11:13:00,70.3,67.8,29.93,ESE,113,0.0,0.0,92,0.04,,,0.06,WUHU216HW,2013-10-05 15:13:00,
2013-10-05 11:19:00,70.3,67.8,29.93,ESE,113,0.0,0.0,92,0.04,,,0.06,WUHU216HW,2013-10-05 15:19:00,
2013-10-05 11:24:00,70.5,68.0,29.93,ESE,113,0.0,0.0,92,0.04,,,0.06,WUHU216HW,2013-10-05 15:24:00,
2013-10-05 11:29:00,70.5,68.0,29.93,ESE,113,0.0,0.0,92,0.04,,,0.06,WUHU216HW,2013-10-05 15:29:00,
2013-10-05 11:34:00,70.7,68.2,29.93,ESE,113,0.0,0.0,92,0.04,,,0.06,WUHU216HW,2013-10-05 15:34:00,
2013-10-05 11:39:00,70.7,68.2,29.93,ESE,113,0.0,0.0,92,0.04,,,0.06,WUHU216HW,2013-10-05 15:39:00,
2013-10-05 11:44:00,70.7,68.2,29.93,ESE,113,0.0,0.0,92,0.04,,,0.06,WUHU216HW,2013-10-05 15:44:00,
2013-10-05 11:49:00,70.8,68.4,29.93,ESE,113,0.0,0.0,92,0.04,,,0.06,WUHU216HW,2013-10-05 15:49:00,
2013-10-05 11:54:00,70.8,68.4,29.94,ESE,113,0.0,0.0,92,0.02,,,0.06,WUHU216HW,2013-10-05 15:54:00,
2013-10-05 11:59:00,70.8,68.4,29.93,ESE,113,0.0,0.0,92,0.00,,,0.06,WUHU216HW,2013-10-05 15:59:00,
2013-10-05 12:04:00,70.8,68.4,29.93,ESE,113,0.0,0.0,92,0.02,,,0.08,WUHU216HW,2013-10-05 16:04:00,
2013-10-05 12:09:00,71.2,68.7,29.93,ESE,113,0.0,0.0,92,0.02,,,0.08,WUHU216HW,2013-10-05 16:09:00,
2013-10-05 12:14:00,71.2,68.7,29.92,ESE,113,0.0,0.0,92,0.02,,,0.08,WUHU216HW,2013-10-05 16:14:00,
2013-10-05 12:19:00,71.2,68.7,29.93,ESE,113,0.0,0.0,92,0.02,,,0.08,WUHU216HW,2013-10-05 16:19:00,
2013-10-05 12:24:00,71.4,68.9,29.92,ESE,113,0.0,0.0,92,0.02,,,0.08,WUHU216HW,2013-10-05 16:24:00,
2013-10-05 12:29:00,71.4,68.9,29.93,ESE,113,0.0,0.0,92,0.02,,,0.08,WUHU216HW,2013-10-05 16:29:00,
2013-10-05 12:34:00,71.4,68.9,29.93,ESE,113,0.0,0.0,92,0.02,,,0.08,WUHU216HW,2013-10-05 16:34:00,
2013-10-05 12:39:00,71.4,68.9,29.93,ESE,113,0.0,0.0,92,0.02,,,0.08,WUHU216HW,2013-10-05 16:39:00,
2013-10-05 12:44:00,71.4,68.9,29.93,ESE,113,0.0,0.0,92,0.02,,,0.08,WUHU216HW,2013-10-05 16:44:00,
2013-10-05 12:49:00,71.4,68.9,29.94,SE,135,0.0,0.0,92,0.02,,,0.08,WUHU216HW,2013-10-05 16:49:00,
2013-10-05 12:54:00,71.4,68.9,29.93,SSE,158,0.0,0.0,92,0.02,,,0.08,WUHU216HW,2013-10-05 16:54:00,
2013-10-05 12:59:00,71.2,68.7,29.94,SSE,158,0.0,0.0,92,0.00,,,0.08,WUHU216HW,2013-10-05 16:59:00,
2013-10-05 13:04:00,71.2,68.7,29.94,SSE,158,0.0,0.0,92,0.00,,,0.08,WUHU216HW,2013-10-05 17:04:00,
2013-10-05 13:09:00,71.2,68.7,29.94,SSE,158,0.0,0.0,92,0.00,,,0.08,WUHU216HW,2013-10-05 17:09:00,
2013-10-05 13:14:00,71.2,68.7,29.93,SSE,158,0.0,0.0,92,0.00,,,0.08,WUHU216HW,2013-10-05 17:14:00,
2013-10-05 13:19:00,71.2,68.7,29.93,SSE,158,1.3,1.3,92,0.00,,,0.08,WUHU216HW,2013-10-05 17:19:00,
2013-10-05 13:24:00,70.8,68.7,29.93,SE,135,0.0,1.3,93,0.00,,,0.08,WUHU216HW,2013-10-05 17:24:00,
2013-10-05 13:29:00,70.8,68.7,29.92,SE,135,0.0,0.0,93,0.02,,,0.10,WUHU216HW,2013-10-05 17:29:00,
2013-10-05 13:34:00,70.8,68.7,29.92,SE,135,0.0,0.0,93,0.02,,,0.10,WUHU216HW,2013-10-05 17:34:00,
2013-10-05 13:39:00,70.8,68.7,29.91,ESE,113,0.0,0.0,93,0.02,,,0.10,WUHU216HW,2013-10-05 17:39:00,
2013-10-05 13:44:00,70.7,68.5,29.91,ENE,68,0.0,0.0,93,0.04,,,0.12,WUHU216HW,2013-10-05 17:44:00,
2013-10-05 13:49:00,70.7,68.5,29.91,SE,135,0.0,2.4,93,0.04,,,0.12,WUHU216HW,2013-10-05 17:49:00,
2013-10-05 13:54:00,70.7,68.5,29.92,SSE,158,1.1,2.4,93,0.04,,,0.12,WUHU216HW,2013-10-05 17:54:00,
2013-10-05 13:59:00,70.7,68.5,29.91,SE,135,0.0,2.0,93,0.04,,,0.12,WUHU216HW,2013-10-05 17:59:00,
2013-10-05 14:04:00,70.7,68.5,29.90,East,90,0.0,2.4,93,0.04,,,0.12,WUHU216HW,2013-10-05 18:04:00,
2013-10-05 14:09:00,70.8,68.7,29.90,South,180,0.0,2.4,93,0.04,,,0.12,WUHU216HW,2013-10-05 18:09:00,
2013-10-05 14:14:00,71.2,69.0,29.90,SSE,158,0.0,0.6,93,0.04,,,0.12,WUHU216HW,2013-10-05 18:14:00,
2013-10-05 14:19:00,71.2,69.0,29.89,South,180,0.0,0.8,93,0.04,,,0.12,WUHU216HW,2013-10-05 18:19:00,
2013-10-05 14:24:00,71.4,69.4,29.88,ENE,68,0.0,0.8,93,0.02,,,0.12,WUHU216HW,2013-10-05 18:24:00,
2013-10-05 14:29:00,71.7,69.6,29.88,SSE,158,3.8,3.8,93,0.02,,,0.12,WUHU216HW,2013-10-05 18:29:00,
2013-10-05 14:34:00,71.9,69.8,29.87,SSE,158,0.0,3.8,93,0.02,,,0.12,WUHU216HW,2013-10-05 18:34:00,
2013-10-05 14:39:00,71.9,69.8,29.87,ESE,113,0.0,3.8,93,0.02,,,0.12,WUHU216HW,2013-10-05 18:39:00,
2013-10-05 14:44:00,72.1,69.9,29.86,SSW,203,0.0,0.0,93,0.00,,,0.12,WUHU216HW,2013-10-05 18:44:00,
2013-10-05 14:49:00,72.3,70.1,29.86,NE,45,0.0,0.0,93,0.00,,,0.12,WUHU216HW,2013-10-05 18:49:00,
2013-10-05 14:54:00,72.3,70.1,29.86,NNW,338,0.0,0.0,93,0.00,,,0.12,WUHU216HW,2013-10-05 18:54:00,
2013-10-05 14:59:00,72.3,69.8,29.86,SSE,158,1.5,1.5,92,0.00,,,0.12,WUHU216HW,2013-10-05 18:59:00,
2013-10-05 15:04:00,72.3,69.8,29.86,NNE,23,0.0,1.5,92,0.00,,,0.12,WUHU216HW,2013-10-05 19:04:00,
2013-10-05 15:09:00,72.3,69.8,29.86,SSE,158,0.0,1.5,92,0.00,,,0.12,WUHU216HW,2013-10-05 19:09:00,
2013-10-05 15:14:00,72.3,69.8,29.86,SSE,158,0.0,0.0,92,0.00,,,0.12,WUHU216HW,2013-10-05 19:14:00,
2013-10-05 15:19:00,72.3,69.8,29.86,SSE,158,0.0,0.0,92,0.00,,,0.12,WUHU216HW,2013-10-05 19:19:00,
2013-10-05 15:24:00,72.5,70.0,29.86,SSE,158,0.0,0.0,92,0.00,,,0.12,WUHU216HW,2013-10-05 19:24:00,
2013-10-05 15:29:00,72.5,70.0,29.86,SE,135,0.0,0.0,92,0.00,,,0.12,WUHU216HW,2013-10-05 19:29:00,
2013-10-05 15:34:00,72.6,70.2,29.86,NNW,338,0.6,0.6,92,0.00,,,0.12,WUHU216HW,2013-10-05 19:34:00,
2013-10-05 15:39:00,72.6,70.2,29.85,SE,135,0.0,0.6,92,0.00,,,0.12,WUHU216HW,2013-10-05 19:39:00,
2013-10-05 15:41:00,73.0,70.5,29.85,SE,135,0.0,0.0,92,0.00,,,0.12,WUHU216HW,2013-10-05 19:41:00,
2013-10-05 15:49:00,73.0,70.5,29.85,SE,135,0.0,1.3,92,0.00,,,0.12,WUHU216HW,2013-10-05 19:49:00,
2013-10-05 15:59:00,73.2,70.4,29.86,SE,135,0.0,0.0,91,0.00,,,0.12,WUHU216HW,2013-10-05 19:59:00,
2013-10-05 16:09:00,73.2,70.4,29.85,ESE,113,0.0,5.5,91,0.00,,,0.12,WUHU216HW,2013-10-05 20:09:00,
2013-10-05 16:18:00,73.2,70.4,29.85,East,90,0.0,0.0,91,0.00,,,0.12,WUHU216HW,2013-10-05 20:18:00,
2013-10-05 16:38:00,73.4,70.9,29.85,SE,135,0.0,1.1,92,0.00,,,0.12,WUHU216HW,2013-10-05 20:38:00,
2013-10-05 16:46:00,73.7,71.0,29.85,ESE,113,0.0,2.2,91,0.00,,,0.12,WUHU216HW,2013-10-05 20:46:00,
2013-10-05 16:51:00,73.7,71.0,29.84,SSE,158,0.0,2.4,91,0.00,,,0.12,WUHU216HW,2013-10-05 20:51:00,
2013-10-05 16:56:00,73.9,71.1,29.84,SSE,158,0.0,2.4,91,0.00,,,0.12,WUHU216HW,2013-10-05 20:56:00,
2013-10-05 17:01:00,73.9,71.1,29.84,SSE,158,0.6,0.6,91,0.00,,,0.12,WUHU216HW,2013-10-05 21:01:00,
2013-10-05 17:06:00,73.9,71.1,29.84,SSE,158,0.0,0.6,91,0.00,,,0.12,WUHU216HW,2013-10-05 21:06:00,
2013-10-05 17:11:00,73.9,71.1,29.84,SSE,158,0.0,0.6,91,0.00,,,0.12,WUHU216HW,2013-10-05 21:11:00,
2013-10-05 17:16:00,73.9,71.1,29.84,SE,135,0.0,2.4,91,0.00,,,0.12,WUHU216HW,2013-10-05 21:16:00,
2013-10-05 17:21:00,73.9,71.1,29.85,SSE,158,0.0,2.4,91,0.00,,,0.12,WUHU216HW,2013-10-05 21:21:00,
2013-10-05 17:26:00,73.9,71.1,29.85,SSE,158,1.1,1.1,91,0.00,,,0.12,WUHU216HW,2013-10-05 21:26:00,
2013-10-05 17:31:00,73.7,70.7,29.85,SSE,158,0.0,2.0,90,0.00,,,0.12,WUHU216HW,2013-10-05 21:31:00,
2013-10-05 17:36:00,73.7,70.7,29.85,ESE,113,0.0,2.0,90,0.00,,,0.12,WUHU216HW,2013-10-05 21:36:00,
2013-10-05 17:41:00,73.7,70.7,29.85,ESE,113,0.0,2.9,90,0.00,,,0.12,WUHU216HW,2013-10-05 21:41:00,
2013-10-05 17:46:00,73.5,70.5,29.85,SSE,158,0.0,6.0,90,0.00,,,0.12,WUHU216HW,2013-10-05 21:46:00,
2013-10-05 17:51:00,73.5,70.5,29.85,SSE,158,0.0,6.0,90,0.00,,,0.12,WUHU216HW,2013-10-05 21:51:00,
2013-10-05 17:56:00,73.4,70.3,29.86,SSE,158,0.0,0.0,90,0.00,,,0.12,WUHU216HW,2013-10-05 21:56:00,
2013-10-05 18:01:00,73.4,70.3,29.85,SE,135,2.9,5.3,90,0.00,,,0.12,WUHU216HW,2013-10-05 22:01:00,
2013-10-05 18:06:00,73.2,70.1,29.85,ESE,113,0.0,5.3,90,0.00,,,0.12,WUHU216HW,2013-10-05 22:06:00,
2013-10-05 18:11:00,73.0,69.9,29.85,SSE,158,2.9,2.9,90,0.00,,,0.12,WUHU216HW,2013-10-05 22:11:00,
2013-10-05 18:16:00,73.0,69.9,29.85,South,180,0.0,2.9,90,0.00,,,0.12,WUHU216HW,2013-10-05 22:16:00,
2013-10-05 18:21:00,72.8,69.8,29.86,SE,135,0.0,2.9,90,0.00,,,0.12,WUHU216HW,2013-10-05 22:21:00,
2013-10-05 18:26:00,72.6,69.6,29.87,SE,135,0.0,2.0,90,0.00,,,0.12,WUHU216HW,2013-10-05 22:26:00,
2013-10-05 18:31:00,72.6,69.6,29.87,ENE,68,1.5,1.5,90,0.00,,,0.12,WUHU216HW,2013-10-05 22:31:00,
2013-10-05 18:36:00,72.5,69.4,29.87,ESE,113,0.0,1.5,90,0.00,,,0.12,WUHU216HW,2013-10-05 22:36:00,
2013-10-05 18:41:00,72.3,69.2,29.86,ESE,113,0.0,0.0,90,0.00,,,0.12,WUHU216HW,2013-10-05 22:41:00,
2013-10-05 18:46:00,72.3,69.2,29.88,SSE,158,0.0,0.0,90,0.00,,,0.12,WUHU216HW,2013-10-05 22:46:00,
2013-10-05 18:51:00,72.1,68.7,29.89,West,270,12.5,13.8,89,0.00,,,0.12,WUHU216HW,2013-10-05 22:51:00,
2013-10-05 18:56:00,71.4,67.6,29.89,West,270,6.2,13.8,88,0.00,,,0.12,WUHU216HW,2013-10-05 22:56:00,
2013-10-05 19:01:00,70.8,67.1,29.89,West,270,2.4,12.5,88,0.02,,,0.14,WUHU216HW,2013-10-05 23:01:00,
2013-10-05 19:06:00,69.9,66.5,29.89,WNW,293,0.0,2.4,89,0.06,,,0.18,WUHU216HW,2013-10-05 23:06:00,
2013-10-05 19:11:00,69.6,66.2,29.90,WSW,248,0.6,2.6,89,0.10,,,0.22,WUHU216HW,2013-10-05 23:11:00,
2013-10-05 19:16:00,69.0,65.6,29.89,NNW,338,0.0,2.9,89,0.12,,,0.24,WUHU216HW,2013-10-05 23:16:00,
2013-10-05 19:21:00,68.7,65.3,29.89,NW,315,0.0,2.9,89,0.14,,,0.26,WUHU216HW,2013-10-05 23:21:00,
2013-10-05 19:26:00,68.5,65.4,29.88,NW,315,0.0,0.0,90,0.16,,,0.26,WUHU216HW,2013-10-05 23:26:00,
2013-10-05 19:31:00,68.3,65.3,29.89,NW,315,0.0,0.0,90,0.16,,,0.29,WUHU216HW,2013-10-05 23:31:00,
2013-10-05 19:36:00,68.1,65.1,29.89,West,270,0.0,0.0,90,0.30,,,0.33,WUHU216HW,2013-10-05 23:36:00,
2013-10-05 19:41:00,67.8,64.7,29.90,SE,135,0.0,0.0,90,0.39,,,0.51,WUHU216HW,2013-10-05 23:41:00,
2013-10-05 19:46:00,67.6,64.5,29.90,SE,135,0.0,0.0,90,0.44,,,0.57,WUHU216HW,2013-10-05 23:46:00,
2013-10-05 19:51:00,67.2,64.5,29.90,SE,135,0.0,0.0,91,0.49,,,0.59,WUHU216HW,2013-10-05 23:51:00,
2013-10-05 19:56:00,67.2,64.5,29.90,SE,135,0.0,0.0,91,0.51,,,0.63,WUHU216HW,2013-10-05 23:56:00,
2013-10-05 20:01:00,67.2,64.5,29.89,ENE,68,0.0,0.0,91,0.49,,,0.67,WUHU216HW,2013-10-06 00:01:00,
2013-10-05 20:06:00,67.1,64.3,29.90,ENE,68,0.0,0.0,91,0.44,,,0.67,WUHU216HW,2013-10-06 00:06:00,
2013-10-05 20:11:00,67.1,64.3,29.89,ENE,68,0.0,0.0,91,0.49,,,0.73,WUHU216HW,2013-10-06 00:11:00,
2013-10-05 20:16:00,66.9,64.1,29.88,ENE,68,0.0,0.0,91,0.49,,,0.75,WUHU216HW,2013-10-06 00:16:00,
2013-10-05 20:21:00,66.9,64.1,29.87,ENE,68,0.0,0.0,91,0.51,,,0.77,WUHU216HW,2013-10-06 00:21:00,
2013-10-05 20:27:00,66.9,64.1,29.86,ENE,68,0.0,0.0,91,0.51,,,0.79,WUHU216HW,2013-10-06 00:27:00,
2013-10-05 20:32:00,66.9,64.1,29.85,ENE,68,0.0,0.0,91,0.49,,,0.79,WUHU216HW,2013-10-06 00:32:00,
2013-10-05 20:37:00,66.7,63.9,29.85,ENE,68,0.0,0.0,91,0.37,,,0.79,WUHU216HW,2013-10-06 00:37:00,
2013-10-05 20:42:00,66.7,63.9,29.85,ENE,68,0.0,0.0,91,0.28,,,0.79,WUHU216HW,2013-10-06 00:42:00,
2013-10-05 20:47:00,66.7,64.2,29.84,ENE,68,0.0,0.0,92,0.20,,,0.79,WUHU216HW,2013-10-06 00:47:00,
2013-10-05 20:52:00,66.7,64.2,29.85,ENE,68,0.0,0.0,92,0.16,,,0.79,WUHU216HW,2013-10-06 00:52:00,
2013-10-05 20:57:00,66.5,64.1,29.85,ENE,68,0.0,0.0,92,0.14,,,0.79,WUHU216HW,2013-10-06 00:57:00,
2013-10-05 21:02:00,66.5,64.1,29.85,ENE,68,0.0,0.0,92,0.12,,,0.79,WUHU216HW,2013-10-06 01:02:00,
2013-10-05 21:07:00,66.5,64.1,29.85,ENE,68,0.0,0.0,92,0.10,,,0.79,WUHU216HW,2013-10-06 01:07:00,
2013-10-05 21:12:00,66.3,63.9,29.85,ENE,68,0.0,0.0,92,0.04,,,0.79,WUHU216HW,2013-10-06 01:12:00,
2013-10-05 21:17:00,66.3,63.9,29.85,ENE,68,0.0,0.0,92,0.02,,,0.79,WUHU216HW,2013-10-06 01:17:00,
2013-10-05 21:22:00,66.3,63.9,29.84,ENE,68,0.0,0.0,92,0.02,,,0.79,WUHU216HW,2013-10-06 01:22:00,
2013-10-05 21:27:00,66.3,63.9,29.84,ENE,68,0.0,0.0,92,0.00,,,0.79,WUHU216HW,2013-10-06 01:27:00,
2013-10-05 21:32:00,66.3,63.9,29.85,ENE,68,0.0,0.0,92,0.00,,,0.79,WUHU216HW,2013-10-06 01:32:00,
2013-10-05 21:37:00,66.3,63.9,29.85,ENE,68,0.0,0.0,92,0.00,,,0.79,WUHU216HW,2013-10-06 01:37:00,
2013-10-05 21:42:00,66.3,63.9,29.85,ENE,68,0.0,0.0,92,0.00,,,0.79,WUHU216HW,2013-10-06 01:42:00,
2013-10-05 21:47:00,66.3,63.9,29.85,ENE,68,0.0,0.0,92,0.00,,,0.79,WUHU216HW,2013-10-06 01:47:00,
2013-10-05 21:52:00,66.2,63.7,29.85,SE,135,0.0,0.0,92,0.00,,,0.79,WUHU216HW,2013-10-06 01:52:00,
2013-10-05 21:57:00,66.0,63.5,29.85,SSE,158,0.0,0.0,92,0.00,,,0.79,WUHU216HW,2013-10-06 01:57:00,
2013-10-05 22:02:00,66.0,63.5,29.85,SSE,158,0.0,0.0,92,0.00,,,0.79,WUHU216HW,2013-10-06 02:02:00,
2013-10-05 22:07:00,66.0,63.5,29.84,East,90,0.0,0.0,92,0.00,,,0.79,WUHU216HW,2013-10-06 02:07:00,
2013-10-05 22:12:00,66.0,63.5,29.84,ENE,68,0.0,0.0,92,0.00,,,0.79,WUHU216HW,2013-10-06 02:12:00,
2013-10-05 22:17:00,66.0,63.5,29.84,ENE,68,0.0,0.0,92,0.00,,,0.79,WUHU216HW,2013-10-06 02:17:00,
2013-10-05 22:22:00,66.0,63.5,29.84,ENE,68,0.0,0.0,92,0.00,,,0.79,WUHU216HW,2013-10-06 02:22:00,
2013-10-05 22:27:00,66.0,63.5,29.83,ENE,68,0.0,0.0,92,0.00,,,0.79,WUHU216HW,2013-10-06 02:27:00,
2013-10-05 22:32:00,66.0,63.5,29.83,ENE,68,0.0,0.0,92,0.00,,,0.79,WUHU216HW,2013-10-06 02:32:00,
2013-10-05 22:37:00,66.0,63.5,29.84,ENE,68,0.0,0.0,92,0.00,,,0.79,WUHU216HW,2013-10-06 02:37:00,
2013-10-05 22:42:00,66.0,63.5,29.84,ENE,68,0.0,0.0,92,0.00,,,0.79,WUHU216HW,2013-10-06 02:42:00,
2013-10-05 22:47:00,66.0,63.5,29.85,ENE,68,0.0,0.0,92,0.00,,,0.79,WUHU216HW,2013-10-06 02:47:00,
2013-10-05 22:52:00,66.0,63.8,29.85,ENE,68,0.0,0.0,93,0.00,,,0.79,WUHU216HW,2013-10-06 02:52:00,
2013-10-05 22:57:00,66.0,63.8,29.85,ENE,68,0.0,0.0,93,0.00,,,0.79,WUHU216HW,2013-10-06 02:57:00,
2013-10-05 23:02:00,66.0,63.8,29.85,NE,45,0.0,0.0,93,0.02,,,0.81,WUHU216HW,2013-10-06 03:02:00,
2013-10-05 23:07:00,66.0,63.8,29.84,ESE,113,0.0,0.0,93,0.02,,,0.81,WUHU216HW,2013-10-06 03:07:00,
2013-10-05 23:12:00,66.0,63.8,29.84,ENE,68,0.0,0.0,93,0.02,,,0.81,WUHU216HW,2013-10-06 03:12:00,
2013-10-05 23:17:00,66.2,64.0,29.84,ENE,68,0.0,0.0,93,0.04,,,0.83,WUHU216HW,2013-10-06 03:17:00,
2013-10-05 23:22:00,66.2,64.0,29.83,ENE,68,0.0,0.0,93,0.06,,,0.86,WUHU216HW,2013-10-06 03:22:00,
2013-10-05 23:27:00,66.3,64.2,29.81,ENE,68,0.0,0.0,93,0.08,,,0.86,WUHU216HW,2013-10-06 03:27:00,
2013-10-05 23:32:00,66.3,64.2,29.81,ENE,68,0.0,0.0,93,0.08,,,0.88,WUHU216HW,2013-10-06 03:32:00,
2013-10-05 23:37:00,66.3,64.2,29.80,ENE,68,0.0,0.0,93,0.10,,,0.90,WUHU216HW,2013-10-06 03:37:00,
2013-10-05 23:42:00,66.3,64.2,29.81,ENE,68,0.0,0.0,93,0.10,,,0.90,WUHU216HW,2013-10-06 03:42:00,
2013-10-05 23:47:00,66.3,64.2,29.81,ENE,68,0.0,0.0,93,0.10,,,0.90,WUHU216HW,2013-10-06 03:47:00,
2013-10-05 23:52:00,66.3,64.2,29.81,ENE,68,0.0,0.0,93,0.10,,,0.90,WUHU216HW,2013-10-06 03:52:00,
2013-10-05 23:57:00,66.3,64.2,29.81,ENE,68,0.0,0.0,93,0.10,,,0.90,WUHU216HW,2013-10-06 03:57:00,